PWSweather.com
Personal Weather Stations
Station Observations
KMAMEDFI2
Medfield, MA 02052

Medfield, MA 02052

Lat: 42.1900822, Lon: -71.3296889

Elevation: 138

Station Type: Rainwise WS MK-III

http://www.medfieldweather.com

High Low Average
Temperature 36.0°F2.2°C 15.2°F-9.3°C 25.4°F-3.7°C
Dew Point 28.8°F-1.8°C 13.5°F-10.3°C 22.1°F-5.5°C
Winds 9.2 mph 14.8 kmh Calm Calm 2.0 mph WSW3.2 kmh WSW
Wind Gusts 9.2 mph14.8 kmh -- 2.0 mph3.2 kmh
Humidity 94% 65% 88%
Pressure 31.04 in1051.1 mb 29.95 in1014.2 mb -
Precipitation 0.02 in0.5 mm - -
Hour Temp Dew Point Humidity Winds Wind Gusts Pressure Precip Precip Rate Daily Precip Total
12:00 AM 20.5°F-6.4°C 18.8°F-7.3°C 93% 2.3 mph NW3.7 kmh NW 2.3 mph3.7 kmh 31.00 in1049.8 mb - 0.00 in0.0 mm 0.01 in0.3 mm
12:10 AM 20.2°F-6.6°C 18.5°F-7.5°C 93% 2.3 mph WSW3.7 kmh WSW 2.3 mph3.7 kmh 31.00 in1049.8 mb - 0.00 in0.0 mm 0.01 in0.3 mm
12:20 AM 20.0°F-6.7°C 18.3°F-7.6°C 93% 1.2 mph W1.9 kmh W 1.2 mph1.9 kmh 31.00 in1049.8 mb - 0.00 in0.0 mm 0.01 in0.3 mm
12:30 AM 19.8°F-6.8°C 18.1°F-7.7°C 93% 3.5 mph WSW5.6 kmh WSW 2.3 mph3.7 kmh 31.00 in1049.8 mb - 0.00 in0.0 mm 0.01 in0.3 mm
12:40 AM 19.8°F-6.8°C 18.1°F-7.7°C 93% 1.2 mph W1.9 kmh W 1.2 mph1.9 kmh 31.00 in1049.8 mb - 0.00 in0.0 mm 0.01 in0.3 mm
12:50 AM 19.5°F-6.9°C 17.8°F-7.9°C 93% Calm Calm 2.3 mph3.7 kmh 31.00 in1049.8 mb - 0.00 in0.0 mm 0.01 in0.3 mm
01:00 AM 19.4°F-7.0°C 17.7°F-7.9°C 93% 2.3 mph WSW3.7 kmh WSW 1.2 mph1.9 kmh 31.00 in1049.8 mb - 0.00 in0.0 mm 0.00 in0.0 mm
01:10 AM 19.2°F-7.1°C 17.5°F-8.1°C 93% 1.2 mph WSW1.9 kmh WSW 2.3 mph3.7 kmh 30.99 in1049.4 mb - 0.00 in0.0 mm 0.00 in0.0 mm
01:20 AM 19.3°F-7.1°C 17.6°F-8.0°C 93% 1.2 mph WSW1.9 kmh WSW 3.5 mph5.6 kmh 30.99 in1049.4 mb - 0.00 in0.0 mm 0.00 in0.0 mm
01:30 AM 19.2°F-7.1°C 17.5°F-8.1°C 93% 3.5 mph NW5.6 kmh NW 5.8 mph9.3 kmh 30.99 in1049.4 mb - 0.00 in0.0 mm 0.00 in0.0 mm
01:40 AM 19.1°F-7.2°C 17.4°F-8.1°C 93% 2.3 mph SW3.7 kmh SW 1.2 mph1.9 kmh 30.99 in1049.4 mb - 0.00 in0.0 mm 0.00 in0.0 mm
01:50 AM 18.7°F-7.4°C 17.0°F-8.3°C 93% 1.2 mph WSW1.9 kmh WSW 2.3 mph3.7 kmh 30.98 in1049.1 mb - 0.00 in0.0 mm 0.00 in0.0 mm
02:00 AM 18.6°F-7.4°C 16.9°F-8.4°C 93% 2.3 mph NW3.7 kmh NW 3.5 mph5.6 kmh 30.98 in1049.1 mb - 0.00 in0.0 mm 0.00 in0.0 mm
02:10 AM 18.7°F-7.4°C 17.0°F-8.3°C 93% 3.5 mph W5.6 kmh W 2.3 mph3.7 kmh 30.99 in1049.4 mb - 0.00 in0.0 mm 0.00 in0.0 mm
02:20 AM 18.9°F-7.3°C 17.2°F-8.2°C 93% 3.5 mph W5.6 kmh W 2.3 mph3.7 kmh 30.99 in1049.4 mb - 0.00 in0.0 mm 0.00 in0.0 mm
02:30 AM 18.7°F-7.4°C 17.0°F-8.3°C 93% 1.2 mph SW1.9 kmh SW 2.3 mph3.7 kmh 31.00 in1049.8 mb - 0.00 in0.0 mm 0.00 in0.0 mm
02:40 AM 18.5°F-7.5°C 16.8°F-8.4°C 93% 2.3 mph W3.7 kmh W 2.3 mph3.7 kmh 31.00 in1049.8 mb - 0.00 in0.0 mm 0.00 in0.0 mm
02:50 AM 18.5°F-7.5°C 16.8°F-8.4°C 93% 1.2 mph WSW1.9 kmh WSW -- 31.00 in1049.8 mb - 0.00 in0.0 mm 0.00 in0.0 mm
03:00 AM 18.3°F-7.6°C 16.6°F-8.6°C 93% 2.3 mph W3.7 kmh W 1.2 mph1.9 kmh 31.01 in1050.1 mb - 0.00 in0.0 mm 0.00 in0.0 mm
03:10 AM 18.0°F-7.8°C 16.3°F-8.7°C 93% 2.3 mph WSW3.7 kmh WSW 1.2 mph1.9 kmh 31.00 in1049.8 mb - 0.00 in0.0 mm 0.00 in0.0 mm
03:20 AM 17.7°F-7.9°C 16.0°F-8.9°C 93% Calm Calm -- 31.00 in1049.8 mb - 0.00 in0.0 mm 0.00 in0.0 mm
03:30 AM 17.1°F-8.3°C 15.4°F-9.2°C 93% 1.2 mph SW1.9 kmh SW 2.3 mph3.7 kmh 31.00 in1049.8 mb - 0.00 in0.0 mm 0.00 in0.0 mm
03:40 AM 16.9°F-8.4°C 15.2°F-9.3°C 93% Calm Calm -- 31.00 in1049.8 mb - 0.00 in0.0 mm 0.00 in0.0 mm
03:50 AM 16.2°F-8.8°C 14.5°F-9.7°C 93% Calm Calm -- 30.99 in1049.4 mb - 0.00 in0.0 mm 0.00 in0.0 mm
04:00 AM 15.9°F-8.9°C 14.2°F-9.9°C 93% Calm Calm -- 31.00 in1049.8 mb - 0.00 in0.0 mm 0.00 in0.0 mm
04:10 AM 16.2°F-8.8°C 14.5°F-9.7°C 93% Calm Calm -- 31.00 in1049.8 mb - 0.00 in0.0 mm 0.00 in0.0 mm
04:20 AM 15.9°F-8.9°C 14.2°F-9.9°C 93% Calm Calm -- 31.00 in1049.8 mb - 0.00 in0.0 mm 0.00 in0.0 mm
04:30 AM 15.6°F-9.1°C 13.9°F-10.1°C 93% Calm Calm -- 31.00 in1049.8 mb - 0.00 in0.0 mm 0.00 in0.0 mm
04:40 AM 15.4°F-9.2°C 13.7°F-10.2°C 93% Calm Calm -- 31.01 in1050.1 mb - 0.00 in0.0 mm 0.00 in0.0 mm
04:50 AM 15.3°F-9.3°C 13.6°F-10.2°C 93% Calm Calm -- 31.01 in1050.1 mb - 0.00 in0.0 mm 0.00 in0.0 mm
05:00 AM 15.6°F-9.1°C 13.9°F-10.1°C 93% 1.2 mph SW1.9 kmh SW 2.3 mph3.7 kmh 31.01 in1050.1 mb - 0.00 in0.0 mm 0.00 in0.0 mm
05:10 AM 15.7°F-9.1°C 14.0°F-10.0°C 93% 1.2 mph SW1.9 kmh SW 2.3 mph3.7 kmh 31.01 in1050.1 mb - 0.00 in0.0 mm 0.00 in0.0 mm
05:20 AM 16.1°F-8.8°C 14.4°F-9.8°C 93% 2.3 mph SW3.7 kmh SW 2.3 mph3.7 kmh 31.01 in1050.1 mb - 0.00 in0.0 mm 0.00 in0.0 mm
05:30 AM 16.3°F-8.7°C 14.6°F-9.7°C 93% 2.3 mph WSW3.7 kmh WSW 2.3 mph3.7 kmh 31.01 in1050.1 mb - 0.00 in0.0 mm 0.00 in0.0 mm
05:40 AM 16.1°F-8.8°C 14.4°F-9.8°C 93% 1.2 mph WSW1.9 kmh WSW 1.2 mph1.9 kmh 31.01 in1050.1 mb - 0.00 in0.0 mm 0.00 in0.0 mm
05:50 AM 15.9°F-8.9°C 14.2°F-9.9°C 93% Calm Calm -- 31.02 in1050.5 mb - 0.00 in0.0 mm 0.00 in0.0 mm
06:00 AM 16.1°F-8.8°C 14.4°F-9.8°C 93% Calm Calm -- 31.03 in1050.8 mb - 0.00 in0.0 mm 0.00 in0.0 mm
06:10 AM 16.3°F-8.7°C 14.6°F-9.7°C 93% 1.2 mph W1.9 kmh W 1.2 mph1.9 kmh 31.02 in1050.5 mb - 0.00 in0.0 mm 0.00 in0.0 mm
06:20 AM 16.3°F-8.7°C 14.6°F-9.7°C 93% Calm Calm -- 31.02 in1050.5 mb - 0.00 in0.0 mm 0.00 in0.0 mm
06:30 AM 16.1°F-8.8°C 14.4°F-9.8°C 93% Calm Calm -- 31.03 in1050.8 mb - 0.00 in0.0 mm 0.00 in0.0 mm
06:40 AM 16.1°F-8.8°C 14.4°F-9.8°C 93% Calm Calm -- 31.02 in1050.5 mb - 0.00 in0.0 mm 0.00 in0.0 mm
06:50 AM 15.7°F-9.1°C 14.0°F-10.0°C 93% Calm Calm -- 31.02 in1050.5 mb - 0.00 in0.0 mm 0.00 in0.0 mm
07:00 AM 15.5°F-9.2°C 13.9°F-10.1°C 93% Calm Calm -- 31.03 in1050.8 mb - 0.00 in0.0 mm 0.00 in0.0 mm
07:10 AM 15.5°F-9.2°C 13.8°F-10.1°C 93% 1.2 mph WSW1.9 kmh WSW 1.2 mph1.9 kmh 31.03 in1050.8 mb - 0.00 in0.0 mm 0.00 in0.0 mm
07:20 AM 15.4°F-9.2°C 13.7°F-10.2°C 93% Calm Calm -- 31.03 in1050.8 mb - 0.00 in0.0 mm 0.00 in0.0 mm
07:30 AM 15.2°F-9.3°C 13.5°F-10.3°C 93% 1.2 mph WSW1.9 kmh WSW 2.3 mph3.7 kmh 31.02 in1050.5 mb - 0.00 in0.0 mm 0.00 in0.0 mm
07:40 AM 15.2°F-9.3°C 13.5°F-10.3°C 93% 2.3 mph WSW3.7 kmh WSW 2.3 mph3.7 kmh 31.03 in1050.8 mb - 0.00 in0.0 mm 0.00 in0.0 mm
07:50 AM 15.7°F-9.1°C 14.0°F-10.0°C 93% Calm Calm -- 31.04 in1051.1 mb - 0.00 in0.0 mm 0.00 in0.0 mm
08:00 AM 15.9°F-8.9°C 14.2°F-9.9°C 93% 2.3 mph W3.7 kmh W 2.3 mph3.7 kmh 31.04 in1051.1 mb - 0.00 in0.0 mm 0.00 in0.0 mm
08:10 AM 15.9°F-8.9°C 14.2°F-9.9°C 93% Calm Calm -- 31.04 in1051.1 mb - 0.00 in0.0 mm 0.00 in0.0 mm
08:20 AM 16.6°F-8.6°C 14.9°F-9.5°C 93% Calm Calm -- 31.04 in1051.1 mb - 0.00 in0.0 mm 0.00 in0.0 mm
08:30 AM 16.7°F-8.5°C 15.0°F-9.4°C 93% 1.2 mph W1.9 kmh W 2.3 mph3.7 kmh 31.04 in1051.1 mb - 0.00 in0.0 mm 0.00 in0.0 mm
08:40 AM 17.3°F-8.2°C 15.6°F-9.1°C 93% Calm Calm -- 31.03 in1050.8 mb - 0.00 in0.0 mm 0.00 in0.0 mm
08:50 AM 17.7°F-7.9°C 16.0°F-8.9°C 93% Calm Calm 1.2 mph1.9 kmh 31.03 in1050.8 mb - 0.00 in0.0 mm 0.00 in0.0 mm
09:00 AM 18.4°F-7.6°C 16.7°F-8.5°C 93% Calm Calm -- 31.02 in1050.5 mb - 0.00 in0.0 mm 0.00 in0.0 mm
09:10 AM 19.3°F-7.1°C 17.6°F-8.0°C 93% 2.3 mph WSW3.7 kmh WSW 2.3 mph3.7 kmh 31.01 in1050.1 mb - 0.00 in0.0 mm 0.00 in0.0 mm
09:20 AM 20.1°F-6.6°C 18.4°F-7.6°C 93% Calm Calm 1.2 mph1.9 kmh 30.99 in1049.4 mb - 0.00 in0.0 mm 0.00 in0.0 mm
09:30 AM 20.4°F-6.4°C 18.7°F-7.4°C 93% Calm Calm -- 30.97 in1048.8 mb - 0.00 in0.0 mm 0.00 in0.0 mm
09:40 AM 20.6°F-6.3°C 18.9°F-7.3°C 93% 1.2 mph WNW1.9 kmh WNW 1.2 mph1.9 kmh 30.94 in1047.7 mb - 0.00 in0.0 mm 0.00 in0.0 mm
09:50 AM 21.6°F-5.8°C 19.9°F-6.7°C 93% 3.5 mph S5.6 kmh S 2.3 mph3.7 kmh 30.81 in1043.3 mb - 0.00 in0.0 mm 0.00 in0.0 mm
10:00 AM 22.4°F-5.3°C 20.7°F-6.3°C 93% 1.2 mph NNW1.9 kmh NNW 1.2 mph1.9 kmh 30.76 in1041.7 mb - 0.00 in0.0 mm 0.00 in0.0 mm
10:10 AM 23.0°F-5.0°C 21.2°F-6.0°C 93% Calm Calm -- 30.68 in1038.9 mb - 0.00 in0.0 mm 0.00 in0.0 mm
10:20 AM 23.7°F-4.6°C 22.0°F-5.6°C 93% 4.6 mph SW7.4 kmh SW 3.5 mph5.6 kmh 30.66 in1038.3 mb - 0.00 in0.0 mm 0.00 in0.0 mm
10:30 AM 24.3°F-4.3°C 22.5°F-5.3°C 93% 2.3 mph WSW3.7 kmh WSW 2.3 mph3.7 kmh 30.62 in1036.9 mb - 0.00 in0.0 mm 0.00 in0.0 mm
10:40 AM 24.9°F-3.9°C 23.1°F-4.9°C 93% Calm Calm -- 30.57 in1035.2 mb - 0.00 in0.0 mm 0.00 in0.0 mm
10:50 AM 25.7°F-3.5°C 23.1°F-4.9°C 90% 3.5 mph W5.6 kmh W 2.3 mph3.7 kmh 30.55 in1034.5 mb - 0.00 in0.0 mm 0.00 in0.0 mm
11:00 AM 26.9°F-2.8°C 23.8°F-4.6°C 88% 4.6 mph SW7.4 kmh SW 3.5 mph5.6 kmh 30.49 in1032.5 mb - 0.00 in0.0 mm 0.00 in0.0 mm
11:10 AM 27.1°F-2.7°C 23.7°F-4.6°C 87% 4.6 mph NW7.4 kmh NW 3.5 mph5.6 kmh 30.49 in1032.5 mb - 0.00 in0.0 mm 0.00 in0.0 mm
11:20 AM 27.6°F-2.4°C 23.6°F-4.7°C 85% 1.2 mph WNW1.9 kmh WNW 1.2 mph1.9 kmh 30.46 in1031.5 mb - 0.00 in0.0 mm 0.00 in0.0 mm
11:30 AM 27.9°F-2.3°C 23.4°F-4.8°C 83% 1.2 mph NW1.9 kmh NW 1.2 mph1.9 kmh 30.44 in1030.8 mb - 0.00 in0.0 mm 0.00 in0.0 mm
11:40 AM 28.7°F-1.8°C 23.6°F-4.7°C 81% 5.8 mph NW9.3 kmh NW 5.8 mph9.3 kmh 30.41 in1029.8 mb - 0.00 in0.0 mm 0.00 in0.0 mm
11:50 AM 30.1°F-1.1°C 21.5°F-5.8°C 70% 5.8 mph W9.3 kmh W 5.8 mph9.3 kmh 29.95 in1014.2 mb - 0.00 in0.0 mm 0.00 in0.0 mm
12:00 PM 31.6°F-0.2°C 24.2°F-4.3°C 74% 1.2 mph NNW1.9 kmh NNW 1.2 mph1.9 kmh 30.39 in1029.1 mb - 0.00 in0.0 mm 0.00 in0.0 mm
12:10 PM 32.4°F0.2°C 21.9°F-5.6°C 65% 4.6 mph WSW7.4 kmh WSW 3.5 mph5.6 kmh 30.07 in1018.3 mb - 0.00 in0.0 mm 0.00 in0.0 mm
12:20 PM 32.8°F0.4°C 22.7°F-5.2°C 66% 4.6 mph W7.4 kmh W 3.5 mph5.6 kmh 29.97 in1014.9 mb - 0.00 in0.0 mm 0.00 in0.0 mm
12:30 PM 33.3°F0.7°C 24.6°F-4.1°C 70% 6.9 mph NW11.1 kmh NW 6.9 mph11.1 kmh 30.20 in1022.7 mb - 0.00 in0.0 mm 0.00 in0.0 mm
12:40 PM 33.5°F0.8°C 24.8°F-4.0°C 70% 2.3 mph NW3.7 kmh NW 3.5 mph5.6 kmh 30.33 in1027.1 mb - 0.00 in0.0 mm 0.00 in0.0 mm
12:50 PM 33.6°F0.9°C 25.5°F-3.6°C 72% 2.3 mph ENE3.7 kmh ENE 1.2 mph1.9 kmh 30.35 in1027.8 mb - 0.00 in0.0 mm 0.00 in0.0 mm
01:00 PM 33.4°F0.8°C 24.7°F-4.1°C 70% 3.5 mph W5.6 kmh W 2.3 mph3.7 kmh 30.37 in1028.4 mb - 0.00 in0.0 mm 0.00 in0.0 mm
01:10 PM 33.7°F0.9°C 25.3°F-3.7°C 71% 1.2 mph SSE1.9 kmh SSE 2.3 mph3.7 kmh 30.35 in1027.8 mb - 0.00 in0.0 mm 0.00 in0.0 mm
01:20 PM 33.3°F0.7°C 25.9°F-3.4°C 74% 4.6 mph NW7.4 kmh NW 3.5 mph5.6 kmh 30.41 in1029.8 mb - 0.00 in0.0 mm 0.00 in0.0 mm
01:30 PM 33.0°F0.6°C 25.3°F-3.7°C 73% 3.5 mph WSW5.6 kmh WSW 2.3 mph3.7 kmh 30.40 in1029.5 mb - 0.00 in0.0 mm 0.00 in0.0 mm
01:40 PM 33.6°F0.9°C 26.2°F-3.2°C 74% 4.6 mph WSW7.4 kmh WSW 5.8 mph9.3 kmh 30.40 in1029.5 mb - 0.00 in0.0 mm 0.00 in0.0 mm
01:50 PM 34.7°F1.5°C 26.0°F-3.3°C 70% 4.6 mph WSW7.4 kmh WSW 5.8 mph9.3 kmh 30.32 in1026.8 mb - 0.00 in0.0 mm 0.00 in0.0 mm
02:00 PM 34.8°F1.6°C 26.0°F-3.3°C 70% 6.9 mph SW11.1 kmh SW 6.9 mph11.1 kmh 30.33 in1027.1 mb - 0.00 in0.0 mm 0.00 in0.0 mm
02:10 PM 34.5°F1.4°C 25.7°F-3.5°C 70% 9.2 mph WSW14.8 kmh WSW 9.2 mph14.8 kmh 30.35 in1027.8 mb - 0.00 in0.0 mm 0.00 in0.0 mm
02:20 PM 34.8°F1.6°C 26.3°F-3.2°C 71% 2.3 mph SW3.7 kmh SW 5.8 mph9.3 kmh 30.34 in1027.4 mb - 0.00 in0.0 mm 0.00 in0.0 mm
02:30 PM 34.9°F1.6°C 26.4°F-3.1°C 71% 4.6 mph SW7.4 kmh SW 3.5 mph5.6 kmh 30.37 in1028.4 mb - 0.01 in0.3 mm 0.01 in0.3 mm
02:40 PM 36.0°F2.2°C 27.1°F-2.7°C 70% 6.9 mph WNW11.1 kmh WNW 5.8 mph9.3 kmh 30.35 in1027.8 mb - 0.00 in0.0 mm 0.01 in0.3 mm
02:50 PM 35.8°F2.1°C 27.0°F-2.8°C 70% 4.6 mph WSW7.4 kmh WSW 3.5 mph5.6 kmh 30.36 in1028.1 mb - 0.00 in0.0 mm 0.01 in0.3 mm
03:00 PM 35.7°F2.1°C 27.2°F-2.7°C 71% 2.3 mph WNW3.7 kmh WNW 2.3 mph3.7 kmh 30.41 in1029.8 mb - 0.00 in0.0 mm 0.01 in0.3 mm
03:10 PM 35.0°F1.7°C 27.2°F-2.7°C 73% 2.3 mph SW3.7 kmh SW 2.3 mph3.7 kmh 30.43 in1030.5 mb - 0.01 in0.3 mm 0.02 in0.5 mm
03:20 PM 35.0°F1.7°C 26.6°F-3.0°C 71% 3.5 mph WSW5.6 kmh WSW 2.3 mph3.7 kmh 30.39 in1029.1 mb - 0.00 in0.0 mm 0.02 in0.5 mm
03:30 PM 34.9°F1.6°C 26.4°F-3.1°C 71% 4.6 mph W7.4 kmh W 2.3 mph3.7 kmh 30.44 in1030.8 mb - 0.00 in0.0 mm 0.02 in0.5 mm
03:40 PM 34.1°F1.2°C 26.7°F-2.9°C 74% 2.3 mph WNW3.7 kmh WNW 2.3 mph3.7 kmh 30.49 in1032.5 mb - 0.00 in0.0 mm 0.02 in0.5 mm
03:50 PM 34.0°F1.1°C 26.9°F-2.8°C 75% 3.5 mph SW5.6 kmh SW 2.3 mph3.7 kmh 30.51 in1033.2 mb - 0.00 in0.0 mm 0.02 in0.5 mm
04:00 PM 33.9°F1.1°C 26.2°F-3.2°C 73% 4.6 mph WSW7.4 kmh WSW 5.8 mph9.3 kmh 30.51 in1033.2 mb - 0.00 in0.0 mm 0.02 in0.5 mm
04:10 PM 33.9°F1.1°C 26.5°F-3.1°C 74% 3.5 mph W5.6 kmh W 3.5 mph5.6 kmh 30.51 in1033.2 mb - 0.00 in0.0 mm 0.02 in0.5 mm
04:20 PM 33.9°F1.1°C 25.5°F-3.6°C 71% 3.5 mph WSW5.6 kmh WSW 3.5 mph5.6 kmh 30.51 in1033.2 mb - 0.00 in0.0 mm 0.02 in0.5 mm
04:30 PM 33.8°F1.0°C 25.7°F-3.5°C 72% 3.5 mph W5.6 kmh W 5.8 mph9.3 kmh 30.51 in1033.2 mb - 0.00 in0.0 mm 0.02 in0.5 mm
04:40 PM 33.4°F0.8°C 26.0°F-3.3°C 74% 3.5 mph WSW5.6 kmh WSW 2.3 mph3.7 kmh 30.52 in1033.5 mb - 0.00 in0.0 mm 0.02 in0.5 mm
04:50 PM 32.8°F0.4°C 26.0°F-3.3°C 76% 3.5 mph WSW5.6 kmh WSW 2.3 mph3.7 kmh 30.55 in1034.5 mb - 0.00 in0.0 mm 0.02 in0.5 mm
05:00 PM 32.5°F0.3°C 26.1°F-3.3°C 77% 5.8 mph WSW9.3 kmh WSW 5.8 mph9.3 kmh 30.57 in1035.2 mb - 0.00 in0.0 mm 0.02 in0.5 mm
05:10 PM 32.2°F0.1°C 26.4°F-3.1°C 79% 1.2 mph WSW1.9 kmh WSW 2.3 mph3.7 kmh 30.59 in1035.9 mb - 0.00 in0.0 mm 0.02 in0.5 mm
05:20 PM 32.1°F0.1°C 26.6°F-3.0°C 80% 3.5 mph NW5.6 kmh NW 2.3 mph3.7 kmh 30.61 in1036.6 mb - 0.00 in0.0 mm 0.02 in0.5 mm
05:30 PM 31.9°F-0.1°C 27.0°F-2.8°C 82% 2.3 mph WNW3.7 kmh WNW 2.3 mph3.7 kmh 30.64 in1037.6 mb - 0.00 in0.0 mm 0.02 in0.5 mm
05:40 PM 31.6°F-0.2°C 27.0°F-2.8°C 83% 3.5 mph WSW5.6 kmh WSW 2.3 mph3.7 kmh 30.66 in1038.3 mb - 0.00 in0.0 mm 0.02 in0.5 mm
05:50 PM 31.5°F-0.3°C 27.5°F-2.5°C 85% 1.2 mph WNW1.9 kmh WNW 1.2 mph1.9 kmh 30.68 in1038.9 mb - 0.00 in0.0 mm 0.02 in0.5 mm
06:00 PM 31.3°F-0.4°C 27.6°F-2.4°C 86% 1.2 mph WSW1.9 kmh WSW 1.2 mph1.9 kmh 30.70 in1039.6 mb - 0.00 in0.0 mm 0.02 in0.5 mm
06:10 PM 31.3°F-0.4°C 27.9°F-2.3°C 87% 1.2 mph WSW1.9 kmh WSW 1.2 mph1.9 kmh 30.72 in1040.3 mb - 0.00 in0.0 mm 0.02 in0.5 mm
06:20 PM 31.2°F-0.4°C 28.1°F-2.2°C 88% 2.3 mph SW3.7 kmh SW 2.3 mph3.7 kmh 30.74 in1041.0 mb - 0.00 in0.0 mm 0.02 in0.5 mm
06:30 PM 31.1°F-0.5°C 28.5°F-1.9°C 90% Calm Calm 2.3 mph3.7 kmh 30.75 in1041.3 mb - 0.00 in0.0 mm 0.02 in0.5 mm
06:40 PM 30.9°F-0.6°C 28.3°F-2.1°C 90% Calm Calm -- 30.76 in1041.7 mb - 0.00 in0.0 mm 0.02 in0.5 mm
06:50 PM 30.3°F-0.9°C 28.8°F-1.8°C 94% Calm Calm -- 30.77 in1042.0 mb - 0.00 in0.0 mm 0.02 in0.5 mm
07:00 PM 29.9°F-1.2°C 28.4°F-2.0°C 94% Calm Calm -- 30.78 in1042.3 mb - 0.00 in0.0 mm 0.02 in0.5 mm
07:10 PM 29.7°F-1.3°C 28.2°F-2.1°C 94% Calm Calm 2.3 mph3.7 kmh 30.79 in1042.7 mb - 0.00 in0.0 mm 0.02 in0.5 mm
07:20 PM 29.6°F-1.3°C 28.1°F-2.2°C 94% Calm Calm -- 30.81 in1043.3 mb - 0.00 in0.0 mm 0.02 in0.5 mm
07:30 PM 29.5°F-1.4°C 28.0°F-2.2°C 94% 1.2 mph WSW1.9 kmh WSW -- 30.82 in1043.7 mb - 0.00 in0.0 mm 0.02 in0.5 mm
07:40 PM 29.6°F-1.3°C 28.1°F-2.2°C 94% Calm Calm -- 30.84 in1044.4 mb - 0.00 in0.0 mm 0.02 in0.5 mm
07:50 PM 29.5°F-1.4°C 28.0°F-2.2°C 94% Calm Calm -- 30.84 in1044.4 mb - 0.00 in0.0 mm 0.02 in0.5 mm
08:00 PM 29.3°F-1.5°C 27.8°F-2.3°C 94% Calm Calm -- 30.85 in1044.7 mb - 0.00 in0.0 mm 0.02 in0.5 mm
08:10 PM 28.8°F-1.8°C 27.3°F-2.6°C 94% Calm Calm -- 30.86 in1045.0 mb - 0.00 in0.0 mm 0.02 in0.5 mm
08:20 PM 28.8°F-1.8°C 27.3°F-2.6°C 94% Calm Calm -- 30.88 in1045.7 mb - 0.00 in0.0 mm 0.02 in0.5 mm
08:30 PM 29.0°F-1.7°C 27.5°F-2.5°C 94% Calm Calm -- 30.90 in1046.4 mb - 0.00 in0.0 mm 0.02 in0.5 mm
08:40 PM 29.3°F-1.5°C 27.8°F-2.3°C 94% Calm Calm -- 30.90 in1046.4 mb - 0.00 in0.0 mm 0.02 in0.5 mm
08:50 PM 29.5°F-1.4°C 28.0°F-2.2°C 94% Calm Calm -- 30.92 in1047.1 mb - 0.00 in0.0 mm 0.02 in0.5 mm
09:00 PM 29.8°F-1.2°C 28.3°F-2.1°C 94% Calm Calm -- 30.93 in1047.4 mb - 0.00 in0.0 mm 0.02 in0.5 mm
09:10 PM 29.9°F-1.2°C 28.4°F-2.0°C 94% Calm Calm -- 30.94 in1047.7 mb - 0.00 in0.0 mm 0.02 in0.5 mm
09:20 PM 29.8°F-1.2°C 28.3°F-2.1°C 94% 1.2 mph W1.9 kmh W 1.2 mph1.9 kmh 30.95 in1048.1 mb - 0.00 in0.0 mm 0.02 in0.5 mm
09:30 PM 29.5°F-1.4°C 28.0°F-2.2°C 94% Calm Calm 1.2 mph1.9 kmh 30.96 in1048.4 mb - 0.00 in0.0 mm 0.02 in0.5 mm
09:40 PM 28.9°F-1.7°C 27.4°F-2.6°C 94% 1.2 mph W1.9 kmh W 1.2 mph1.9 kmh 30.97 in1048.8 mb - 0.00 in0.0 mm 0.02 in0.5 mm
09:50 PM 28.9°F-1.7°C 27.4°F-2.6°C 94% 1.2 mph SW1.9 kmh SW 1.2 mph1.9 kmh 30.97 in1048.8 mb - 0.00 in0.0 mm 0.02 in0.5 mm
10:00 PM 28.9°F-1.7°C 27.4°F-2.6°C 94% Calm Calm -- 30.97 in1048.8 mb - 0.00 in0.0 mm 0.02 in0.5 mm
10:10 PM 28.8°F-1.8°C 27.3°F-2.6°C 94% 1.2 mph SW1.9 kmh SW 1.2 mph1.9 kmh 30.97 in1048.8 mb - 0.00 in0.0 mm 0.02 in0.5 mm
10:20 PM 28.5°F-1.9°C 27.0°F-2.8°C 94% 2.3 mph NE3.7 kmh NE 2.3 mph3.7 kmh 30.98 in1049.1 mb - 0.00 in0.0 mm 0.02 in0.5 mm
10:30 PM 28.6°F-1.9°C 27.1°F-2.7°C 94% 1.2 mph WNW1.9 kmh WNW 1.2 mph1.9 kmh 30.99 in1049.4 mb - 0.00 in0.0 mm 0.02 in0.5 mm
10:40 PM 28.5°F-1.9°C 27.0°F-2.8°C 94% 2.3 mph S3.7 kmh S 2.3 mph3.7 kmh 31.00 in1049.8 mb - 0.00 in0.0 mm 0.02 in0.5 mm
10:50 PM 28.6°F-1.9°C 27.1°F-2.7°C 94% 1.2 mph SE1.9 kmh SE 1.2 mph1.9 kmh 30.99 in1049.4 mb - 0.00 in0.0 mm 0.02 in0.5 mm
11:00 PM 28.2°F-2.1°C 26.7°F-2.9°C 94% 1.2 mph W1.9 kmh W 1.2 mph1.9 kmh 30.98 in1049.1 mb - 0.00 in0.0 mm 0.02 in0.5 mm
11:10 PM 27.8°F-2.3°C 26.3°F-3.2°C 94% 2.3 mph SSW3.7 kmh SSW 2.3 mph3.7 kmh 30.98 in1049.1 mb - 0.00 in0.0 mm 0.02 in0.5 mm
11:20 PM 27.7°F-2.4°C 26.2°F-3.2°C 94% 1.2 mph SE1.9 kmh SE 2.3 mph3.7 kmh 30.98 in1049.1 mb - 0.00 in0.0 mm 0.02 in0.5 mm
11:30 PM 27.3°F-2.6°C 25.8°F-3.4°C 94% 1.2 mph SW1.9 kmh SW -- 30.98 in1049.1 mb - 0.00 in0.0 mm 0.02 in0.5 mm
11:40 PM 27.1°F-2.7°C 25.6°F-3.6°C 94% 3.5 mph SE5.6 kmh SE 5.8 mph9.3 kmh 30.98 in1049.1 mb - 0.00 in0.0 mm 0.02 in0.5 mm
11:50 PM 27.2°F-2.7°C 25.7°F-3.5°C 94% Calm Calm -- 30.98 in1049.1 mb - 0.00 in0.0 mm 0.02 in0.5 mm